Time;durP1;ratioP1;P1;durP2;ratioP2;P2;SDS_P1;SDS_P2;PMS_P1;PMS_P2;Temp;Humidity;BMP_temperature;BMP_pressure;BME280_temperature;BME280_humidity;BME280_pressure;Samples;Min_cycle;Max_cycle;Signal;HPM_P1;HPM_P2
2022/09/18 00:00:39;;;;;;;12.05;5.57;;;;;;;11.41;89.25;98422.88;4971561;28;20506;-47
2022/09/18 00:03:05;;;;;;;6.68;5.10;;;;;;;11.42;89.47;98421.97;4970615;28;20089;-48
2022/09/18 00:05:31;;;;;;;11.80;5.20;;;;;;;11.39;89.83;98413.50;4938458;28;20067;-48
2022/09/18 00:07:57;;;;;;;12.15;5.32;;;;;;;11.34;90.29;98415.53;4970872;28;20092;-47
2022/09/18 00:10:23;;;;;;;8.60;5.38;;;;;;;11.30;90.15;98417.50;4970313;28;20054;-49
2022/09/18 00:12:49;;;;;;;9.60;5.35;;;;;;;11.28;90.67;98419.34;4967950;28;20039;-46
2022/09/18 00:15:15;;;;;;;9.13;5.15;;;;;;;11.26;90.60;98420.34;4970837;28;20046;-47
2022/09/18 00:17:40;;;;;;;7.75;4.68;;;;;;;11.19;90.61;98409.47;4938010;28;20052;-48
2022/09/18 00:20:07;;;;;;;7.32;4.72;;;;;;;11.21;91.12;98418.00;4971461;28;20042;-50
2022/09/18 00:22:33;;;;;;;9.57;5.25;;;;;;;11.17;90.94;98411.31;4953883;28;20047;-47
2022/09/18 00:24:59;;;;;;;7.97;5.00;;;;;;;11.19;91.21;98406.84;4970813;28;20109;-49
2022/09/18 00:27:24;;;;;;;8.23;5.07;;;;;;;11.20;91.25;98412.91;4971255;28;20403;-47
2022/09/18 00:29:50;;;;;;;8.38;4.97;;;;;;;11.17;91.72;98407.84;4954473;28;20136;-48
2022/09/18 00:32:16;;;;;;;15.05;5.53;;;;;;;11.15;91.12;98405.34;4971098;28;20039;-47
2022/09/18 00:34:42;;;;;;;10.80;5.05;;;;;;;11.18;91.64;98406.94;4953241;28;20057;-50
2022/09/18 00:37:08;;;;;;;8.98;5.00;;;;;;;11.19;91.54;98399.06;4971053;28;20041;-46
2022/09/18 00:39:33;;;;;;;10.60;5.03;;;;;;;11.18;91.69;98399.97;4971197;28;20090;-49
2022/09/18 00:41:59;;;;;;;11.40;5.72;;;;;;;11.18;91.85;98405.19;4953597;28;20039;-47
2022/09/18 00:44:42;;;;;;;10.35;5.70;;;;;;;11.13;91.86;98399.41;4970630;28;20070;-49
2022/09/18 00:47:11;;;;;;;12.20;6.32;;;;;;;11.14;91.40;98402.84;4945800;28;20062;-46
2022/09/18 00:49:39;;;;;;;7.50;5.57;;;;;;;11.14;92.13;98408.03;4950627;29;20047;-51
2022/09/18 00:52:06;;;;;;;8.50;5.40;;;;;;;11.13;92.07;98416.75;4946639;28;20403;-48
2022/09/18 00:54:48;;;;;;;8.98;5.53;;;;;;;11.15;92.57;98405.34;4952349;28;20042;-49
2022/09/18 00:57:20;;;;;;;7.78;4.78;;;;;;;11.13;92.45;98407.19;4969097;28;20030;-49
2022/09/18 00:59:48;;;;;;;8.95;5.03;;;;;;;11.11;92.03;98406.44;4946417;28;20039;-48
2022/09/18 01:02:13;;;;;;;10.00;5.03;;;;;;;11.08;91.97;98404.03;4951575;29;20138;-54
2022/09/18 01:04:39;;;;;;;10.07;5.35;;;;;;;11.05;93.04;98406.78;4951459;28;20054;-47
2022/09/18 01:07:28;;;;;;;11.25;5.68;;;;;;;11.03;93.04;98408.66;4970396;28;20159;-48
2022/09/18 01:10:03;;;;;;;9.23;5.30;;;;;;;10.98;92.77;98411.50;4953195;28;20697;-47
2022/09/18 01:12:54;;;;;;;9.38;5.57;;;;;;;10.96;93.20;98408.16;4953656;28;20065;-49
2022/09/18 01:15:53;;;;;;;9.55;5.90;;;;;;;10.92;93.58;98411.00;4953520;28;20174;-48
2022/09/18 01:18:46;;;;;;;11.27;6.35;;;;;;;10.87;93.73;98413.03;4939166;29;20058;-45
2022/09/18 01:21:19;;;;;;;9.52;6.50;;;;;;;10.82;93.50;98412.44;4952407;28;20737;-49
2022/09/18 01:24:21;;;;;;;11.73;6.72;;;;;;;10.80;94.31;98414.28;4963347;28;20048;-48
2022/09/18 01:27:31;;;;;;;11.63;6.68;;;;;;;10.77;95.07;98417.06;4941428;28;20129;-48
2022/09/18 01:30:05;;;;;;;9.02;6.75;;;;;;;10.76;95.30;98430.97;4919200;29;20068;-47
2022/09/18 01:32:44;;;;;;;11.88;7.10;;;;;;;10.72;95.62;98422.53;4937985;29;20058;-48
2022/09/18 01:35:19;;;;;;;11.93;7.18;;;;;;;10.72;95.50;98422.53;4941040;28;20054;-48
2022/09/18 01:37:53;;;;;;;13.23;7.30;;;;;;;10.70;95.64;98432.16;4957192;28;20070;-50
2022/09/18 01:40:24;;;;;;;11.85;7.30;;;;;;;10.69;96.40;98427.88;4940995;28;20041;-47
2022/09/18 01:42:52;;;;;;;14.43;8.02;;;;;;;10.69;96.12;98429.63;4940591;28;20061;-50
2022/09/18 01:45:22;;;;;;;12.30;7.13;;;;;;;10.68;96.23;98427.97;4956921;28;20042;-52
2022/09/18 01:47:54;;;;;;;11.88;7.60;;;;;;;10.49;96.76;98405.56;4930290;29;20036;-47
2022/09/18 01:50:20;;;;;;;16.23;7.53;;;;;;;10.66;96.65;98428.06;4953600;28;20150;-53
2022/09/18 01:52:59;;;;;;;12.23;7.30;;;;;;;10.61;96.80;98425.72;4956044;28;20050;-49
2022/09/18 01:55:28;;;;;;;10.60;7.00;;;;;;;10.47;96.90;98407.41;4953423;29;20035;-49
2022/09/18 01:58:00;;;;;;;14.98;8.23;;;;;;;10.66;96.98;98437.59;4964267;28;20125;-48
2022/09/18 02:00:29;;;;;;;17.40;7.65;;;;;;;10.66;97.04;98435.00;4940601;28;20045;-48
2022/09/18 02:02:56;;;;;;;10.98;7.32;;;;;;;10.67;97.89;98439.28;4956216;28;20053;-51
2022/09/18 02:05:41;;;;;;;9.90;7.20;;;;;;;10.66;97.73;98442.81;4972666;28;20109;-48
2022/09/18 02:08:12;;;;;;;10.23;7.20;;;;;;;10.66;97.65;98437.59;4973480;28;20477;-48
2022/09/18 02:10:45;;;;;;;13.90;7.10;;;;;;;10.62;97.75;98439.53;4956449;28;20050;-49
2022/09/18 02:13:19;;;;;;;11.82;6.65;;;;;;;10.59;98.28;98445.72;4940528;28;20426;-48
2022/09/18 02:15:47;;;;;;;14.25;7.28;;;;;;;10.53;97.87;98429.63;4940541;28;20047;-48
2022/09/18 02:18:21;;;;;;;11.93;7.05;;;;;;;10.55;98.07;98443.38;4972325;28;20042;-49
2022/09/18 02:20:47;;;;;;;12.02;6.57;;;;;;;10.54;98.30;98437.34;4940405;28;20556;-52
2022/09/18 02:23:13;;;;;;;12.27;7.10;;;;;;;10.54;98.40;98433.91;4940334;28;20157;-48
2022/09/18 02:25:47;;;;;;;9.02;6.43;;;;;;;10.33;99.27;98411.69;4973583;28;20093;-50
2022/09/18 02:28:15;;;;;;;10.98;6.70;;;;;;;10.52;99.19;98440.97;4972172;28;20057;-47
2022/09/18 02:30:41;;;;;;;11.93;6.70;;;;;;;10.53;99.59;98438.25;4972393;28;20078;-47
2022/09/18 02:33:43;;;;;;;10.65;7.07;;;;;;;10.56;99.53;98437.28;4971673;28;20046;-48
2022/09/18 02:36:14;;;;;;;9.68;6.47;;;;;;;10.42;99.36;98421.56;4913619;29;20135;-46
2022/09/18 02:39:04;;;;;;;12.05;6.82;;;;;;;10.52;99.82;98441.78;4934863;28;20051;-50
2022/09/18 02:41:48;;;;;;;10.55;6.13;;;;;;;10.52;99.98;98443.56;4955779;28;20073;-46
2022/09/18 02:44:40;;;;;;;14.68;6.78;;;;;;;10.52;99.72;98443.56;4971618;28;20046;-47
2022/09/18 02:47:21;;;;;;;13.50;6.93;;;;;;;10.51;99.92;98445.31;4959064;28;20053;-51
2022/09/18 02:49:59;;;;;;;12.13;6.80;;;;;;;10.37;100.00;98427.00;4992281;28;20046;-49
2022/09/18 02:52:57;;;;;;;11.18;7.13;;;;;;;10.48;100.00;98458.47;4943225;28;20081;-48
2022/09/18 02:55:30;;;;;;;11.52;7.55;;;;;;;10.44;100.00;98459.56;4932901;28;20047;-51
2022/09/18 02:58:05;;;;;;;11.75;6.93;;;;;;;10.44;100.00;98463.91;4955394;28;20046;-52
2022/09/18 03:00:34;;;;;;;13.50;7.00;;;;;;;10.43;100.00;98460.47;4955480;28;20043;-50
2022/09/18 03:03:12;;;;;;;14.15;7.40;;;;;;;10.45;100.00;98463.00;4972566;28;20571;-48
2022/09/18 03:05:44;;;;;;;11.57;7.00;;;;;;;10.18;100.00;98424.56;4939484;28;20391;-50
2022/09/18 03:08:10;;;;;;;9.23;6.45;;;;;;;10.43;100.00;98468.25;4923581;28;20442;-46
2022/09/18 03:10:36;;;;;;;10.60;7.15;;;;;;;10.43;100.00;98464.81;4955103;28;20046;-46
2022/09/18 03:13:02;;;;;;;11.15;6.95;;;;;;;10.44;100.00;98466.50;4923501;28;20042;-47
2022/09/18 03:15:30;;;;;;;11.50;6.95;;;;;;;10.42;100.00;98465.72;4955315;28;20548;-51
2022/09/18 03:17:56;;;;;;;16.65;7.88;;;;;;;10.41;100.00;98461.47;4955012;28;20138;-46
2022/09/18 03:20:22;;;;;;;12.05;7.20;;;;;;;10.41;100.00;98456.28;4955128;28;20129;-46
2022/09/18 03:22:49;;;;;;;13.05;7.10;;;;;;;10.39;100.00;98461.56;4955116;28;20146;-48
2022/09/18 03:25:15;;;;;;;15.15;7.65;;;;;;;10.40;100.00;98465.00;4938997;28;20071;-49
2022/09/18 03:27:41;;;;;;;13.88;7.55;;;;;;;10.28;100.00;98447.44;4955121;28;20054;-48
2022/09/18 03:30:10;;;;;;;13.07;7.00;;;;;;;10.41;100.00;98467.53;4954544;28;20077;-50
2022/09/18 03:32:37;;;;;;;13.55;6.97;;;;;;;10.44;100.00;98466.50;4939250;28;20042;-46
2022/09/18 03:35:06;;;;;;;19.38;8.13;;;;;;;10.44;100.00;98466.50;4970749;28;20514;-47
2022/09/18 03:37:32;;;;;;;11.23;7.25;;;;;;;10.43;100.00;98472.63;4954664;28;20112;-48
2022/09/18 03:40:01;;;;;;;13.38;7.13;;;;;;;10.43;100.00;98465.66;4955192;28;20122;-49
2022/09/18 03:42:29;;;;;;;12.15;6.85;;;;;;;10.46;100.00;98469.88;4971986;28;20067;-49
2022/09/18 03:44:58;;;;;;;;;;;;;;;10.49;100.00;98467.94;4959781;28;20050;-49
2022/09/18 03:47:26;;;;;;;11.15;7.60;;;;;;;10.27;100.00;98428.44;4971580;28;19918;-49
2022/09/18 03:49:52;;;;;;;11.35;7.20;;;;;;;10.50;100.00;98467.03;4955483;28;20054;-46
2022/09/18 03:52:20;;;;;;;15.43;8.10;;;;;;;10.54;100.00;98465.09;4938161;28;20101;-47
2022/09/18 03:54:53;;;;;;;11.32;7.63;;;;;;;10.55;100.00;98461.56;4939176;28;20070;-50
2022/09/18 03:57:56;;;;;;;21.60;7.05;;;;;;;10.59;100.00;98455.28;4932171;29;20554;-48
2022/09/18 04:00:45;;;;;;;10.05;6.82;;;;;;;10.63;100.00;98454.19;4918693;28;20518;-51
2022/09/18 04:03:19;;;;;;;15.02;6.65;;;;;;;10.65;100.00;98449.75;4970451;28;20097;-54
2022/09/18 04:06:11;;;;;;;11.55;6.88;;;;;;;10.70;100.00;98447.75;4971559;28;20473;-48
2022/09/18 04:08:56;;;;;;;11.05;7.15;;;;;;;10.70;100.00;98446.91;4971419;28;20106;-53
2022/09/18 04:11:34;;;;;;;11.52;7.72;;;;;;;10.73;100.00;98444.97;4960346;28;20050;-46
2022/09/18 04:14:00;;;;;;;13.57;7.45;;;;;;;10.73;100.00;98439.78;4954034;28;20043;-50
2022/09/18 04:16:26;;;;;;;15.23;7.13;;;;;;;10.55;99.58;98414.81;4954210;28;20430;-48
2022/09/18 04:18:51;;;;;;;11.70;6.85;;;;;;;10.78;99.77;98436.94;4954000;28;20513;-50
2022/09/18 04:21:17;;;;;;;8.95;7.20;;;;;;;10.80;100.00;98442.88;4954044;28;20042;-50
2022/09/18 04:23:43;;;;;;;13.27;7.43;;;;;;;10.82;99.49;98441.88;4970275;28;20486;-46
2022/09/18 04:26:11;;;;;;;12.73;7.32;;;;;;;10.84;99.28;98440.03;4954136;28;20121;-51
2022/09/18 04:28:47;;;;;;;11.20;7.05;;;;;;;10.88;99.11;98443.31;4969914;28;20130;-50
2022/09/18 04:31:13;;;;;;;10.45;7.10;;;;;;;10.95;99.34;98448.06;4955606;28;20092;-49
2022/09/18 04:33:39;;;;;;;11.52;7.55;;;;;;;10.99;98.79;98452.16;4955406;28;20039;-46
2022/09/18 04:36:07;;;;;;;12.93;7.10;;;;;;;11.03;98.96;98443.31;4951979;28;20113;-49
2022/09/18 04:38:34;;;;;;;14.93;7.15;;;;;;;10.95;98.27;98423.81;4963768;28;20467;-50
2022/09/18 04:41:00;;;;;;;12.07;7.18;;;;;;;11.20;98.20;98454.53;4953448;28;20108;-46
2022/09/18 04:43:27;;;;;;;15.00;7.68;;;;;;;11.31;97.85;98450.38;4969668;28;20089;-49
2022/09/18 04:45:54;;;;;;;9.82;7.03;;;;;;;11.43;97.13;98451.44;4969779;28;20053;-48
2022/09/18 04:48:20;;;;;;;11.23;7.78;;;;;;;11.52;96.67;98443.09;4970106;28;20050;-51
2022/09/18 04:50:47;;;;;;;16.30;7.60;;;;;;;11.64;95.84;98446.75;4966585;28;20046;-48
2022/09/18 04:53:17;;;;;;;10.60;7.15;;;;;;;11.78;94.67;98452.00;4952825;28;20414;-47
2022/09/18 04:55:45;;;;;;;13.50;7.72;;;;;;;11.83;94.21;98448.22;4968640;28;20066;-49
2022/09/18 04:58:13;;;;;;;14.82;8.75;;;;;;;11.77;93.26;98421.72;4970011;28;20128;-52
2022/09/18 05:00:40;;;;;;;11.20;7.63;;;;;;;12.09;92.12;98453.66;4936729;28;20039;-47
2022/09/18 05:03:07;;;;;;;13.07;7.30;;;;;;;12.12;91.19;98454.31;4967902;28;20046;-51
2022/09/18 05:05:36;;;;;;;10.60;6.90;;;;;;;12.11;90.45;98454.38;4969672;28;20047;-50
2022/09/18 05:08:03;;;;;;;14.38;7.18;;;;;;;12.12;89.91;98456.06;4969732;28;20053;-50
2022/09/18 05:10:29;;;;;;;7.88;6.50;;;;;;;12.16;89.76;98447.13;4968158;28;20039;-47
2022/09/18 05:12:56;;;;;;;7.55;6.70;;;;;;;12.35;88.91;98455.53;4950906;28;20401;-53
2022/09/18 05:15:22;;;;;;;14.13;7.38;;;;;;;12.43;88.37;98453.28;4944947;28;20066;-48
2022/09/18 05:18:06;;;;;;;12.18;7.38;;;;;;;12.55;87.43;98451.69;4968481;28;20046;-48
2022/09/18 05:20:33;;;;;;;9.73;7.07;;;;;;;12.52;86.58;98426.63;4950263;28;20035;-47
2022/09/18 05:23:05;;;;;;;13.25;6.82;;;;;;;12.85;86.25;98439.34;4954970;28;20078;-48
2022/09/18 05:25:31;;;;;;;10.95;7.50;;;;;;;13.04;85.02;98444.19;4952769;28;20046;-50
2022/09/18 05:28:02;;;;;;;10.57;6.53;;;;;;;13.11;84.15;98445.50;4965984;28;20042;-49
2022/09/18 05:30:33;;;;;;;13.15;6.90;;;;;;;13.07;83.50;98439.66;4967769;28;20058;-46
2022/09/18 05:33:08;;;;;;;9.73;7.10;;;;;;;13.20;83.01;98444.91;4966284;28;20047;-49
2022/09/18 05:35:38;;;;;;;9.23;6.75;;;;;;;13.10;82.31;98404.66;4950896;28;20042;-51
2022/09/18 05:38:04;;;;;;;10.82;6.53;;;;;;;13.44;81.36;98442.50;4950584;28;20046;-51
2022/09/18 05:40:32;;;;;;;12.52;6.38;;;;;;;13.61;80.31;98436.97;4948075;28;20133;-50
2022/09/18 05:42:59;;;;;;;9.20;6.38;;;;;;;13.82;79.03;98443.38;4943034;28;20063;-53
2022/09/18 05:45:26;;;;;;;9.48;6.25;;;;;;;14.26;77.76;98442.16;4952442;28;20426;-51
2022/09/18 05:48:00;;;;;;;8.90;5.88;;;;;;;15.06;75.31;98433.00;4953313;28;20054;-51
2022/09/18 05:50:28;;;;;;;13.52;6.18;;;;;;;16.13;71.81;98434.53;4966831;28;20538;-52
2022/09/18 05:53:00;;;;;;;8.20;5.30;;;;;;;16.87;68.72;98426.06;4968402;28;20533;-52
2022/09/18 05:55:32;;;;;;;7.95;5.82;;;;;;;16.88;67.96;98403.25;4965659;28;20066;-49
2022/09/18 05:57:59;;;;;;;12.45;5.82;;;;;;;16.73;67.17;98410.59;4953160;28;20043;-52
2022/09/18 06:00:27;;;;;;;9.02;5.47;;;;;;;16.78;66.79;98411.06;4936762;28;20070;-49
2022/09/18 06:03:10;;;;;;;10.32;5.43;;;;;;;17.70;64.51;98420.16;4952031;28;20130;-53
2022/09/18 06:05:37;;;;;;;10.68;5.45;;;;;;;18.83;62.22;98421.81;4952119;28;20129;-52
2022/09/18 06:08:08;;;;;;;13.45;5.45;;;;;;;20.08;58.29;98421.81;4955140;28;20596;-49
2022/09/18 06:10:38;;;;;;;9.65;5.82;;;;;;;20.88;55.80;98422.06;4977971;28;20469;-53
2022/09/18 06:13:11;;;;;;;11.85;5.22;;;;;;;21.87;53.30;98431.63;4963107;28;20050;-51
2022/09/18 06:15:46;;;;;;;6.05;4.60;;;;;;;22.65;50.26;98435.06;4955303;28;20113;-50
2022/09/18 06:18:13;;;;;;;9.38;5.28;;;;;;;22.36;49.07;98408.09;4955076;28;20047;-52
2022/09/18 06:20:41;;;;;;;11.43;5.50;;;;;;;22.98;47.83;98420.13;4954922;28;20045;-50
2022/09/18 06:23:07;;;;;;;8.90;5.38;;;;;;;22.69;47.84;98423.16;4978372;28;20134;-51
2022/09/18 06:25:43;;;;;;;11.35;5.50;;;;;;;21.87;48.48;98425.50;4969385;28;20043;-52
2022/09/18 06:28:09;;;;;;;9.82;5.60;;;;;;;20.83;49.54;98387.31;4955714;28;20035;-49
2022/09/18 06:30:36;;;;;;;7.68;5.90;;;;;;;20.45;50.53;98417.44;4971757;28;20053;-49
2022/09/18 06:33:06;;;;;;;8.68;6.03;;;;;;;20.09;50.94;98419.06;4935662;28;20047;-53
2022/09/18 06:35:34;;;;;;;8.05;5.57;;;;;;;19.67;51.88;98413.31;4954624;28;20050;-49
2022/09/18 06:38:05;;;;;;;8.77;5.57;;;;;;;19.73;51.82;98417.19;4954282;28;20065;-47
2022/09/18 06:40:51;;;;;;;13.05;5.65;;;;;;;20.58;50.33;98420.53;4961686;28;20142;-49
2022/09/18 06:43:23;;;;;;;8.02;5.30;;;;;;;21.23;48.89;98416.03;4931170;29;20055;-49
2022/09/18 06:46:09;;;;;;;9.05;5.60;;;;;;;21.21;48.58;98419.78;4952452;28;20047;-47
2022/09/18 06:48:41;;;;;;;11.20;5.45;;;;;;;21.68;47.94;98430.94;4933551;29;20047;-51
2022/09/18 06:51:08;;;;;;;9.90;5.63;;;;;;;23.50;45.25;98425.25;4944892;28;20050;-48
2022/09/18 06:53:51;;;;;;;15.02;5.75;;;;;;;25.26;42.27;98421.47;4937304;29;20051;-48
2022/09/18 06:56:18;;;;;;;10.38;5.85;;;;;;;26.03;40.64;98425.69;4944916;29;20050;-49
2022/09/18 06:58:44;;;;;;;9.07;5.90;;;;;;;27.11;39.00;98419.81;4935202;29;20051;-50
2022/09/18 07:01:13;;;;;;;11.18;6.80;;;;;;;28.21;37.20;98424.53;4948407;28;20477;-50
2022/09/18 07:03:47;;;;;;;8.80;5.72;;;;;;;28.99;34.85;98420.69;4949788;29;20039;-50
2022/09/18 07:06:25;;;;;;;10.73;7.75;;;;;;;29.66;34.07;98408.28;4950200;29;20061;-48
2022/09/18 07:08:52;;;;;;;7.75;5.03;;;;;;;30.38;32.02;98418.13;4951348;28;20134;-51
2022/09/18 07:11:53;;;;;;;7.20;4.20;;;;;;;30.81;30.92;98411.22;4929965;29;20035;-53
2022/09/18 07:14:27;;;;;;;10.77;4.93;;;;;;;30.92;30.16;98413.25;4936353;29;20051;-50
2022/09/18 07:16:56;;;;;;;6.68;4.50;;;;;;;30.85;29.85;98406.25;4935594;28;20557;-47
2022/09/18 07:19:22;;;;;;;4.82;3.85;;;;;;;31.27;28.99;98407.50;4950335;28;20035;-49
2022/09/18 07:21:48;;;;;;;6.85;3.90;;;;;;;30.86;28.70;98407.91;4953721;28;20427;-47
2022/09/18 07:24:13;;;;;;;5.32;3.55;;;;;;;29.44;30.03;98373.63;4950750;29;20039;-52
2022/09/18 07:26:39;;;;;;;7.22;3.60;;;;;;;28.99;30.88;98401.13;4946969;29;20468;-50
2022/09/18 07:29:07;;;;;;;8.20;4.07;;;;;;;28.69;31.24;98400.53;4950337;29;20035;-51
2022/09/18 07:31:34;;;;;;;7.15;3.58;;;;;;;28.34;31.29;98396.25;4950924;29;20062;-49
2022/09/18 07:34:06;;;;;;;7.13;3.05;;;;;;;27.62;31.66;98392.00;4950686;29;20122;-51
2022/09/18 07:36:32;;;;;;;7.20;3.40;;;;;;;26.95;32.69;98386.19;4951141;29;20047;-51
2022/09/18 07:38:58;;;;;;;3.83;3.00;;;;;;;26.62;33.43;98364.41;4950184;29;20141;-54
2022/09/18 07:41:31;;;;;;;4.32;3.45;;;;;;;26.78;33.48;98371.38;4949918;28;20047;-51
2022/09/18 07:43:57;;;;;;;6.93;3.72;;;;;;;26.99;33.17;98360.78;4948983;29;22212;-52
2022/09/18 07:46:23;;;;;;;7.43;4.00;;;;;;;26.38;34.00;98375.41;4949638;28;20125;-53
2022/09/18 07:48:51;;;;;;;;;;;;;;;25.12;35.58;98379.66;4951471;29;20086;-53
2022/09/18 07:51:25;;;;;;;6.22;4.03;;;;;;;23.69;37.82;98342.66;4967077;28;19918;-49
2022/09/18 07:53:52;;;;;;;5.93;3.90;;;;;;;22.97;39.44;98367.28;4950474;28;20047;-52
2022/09/18 07:56:27;;;;;;;6.25;4.43;;;;;;;22.00;41.41;98356.28;4949752;29;20043;-53
2022/09/18 07:58:55;;;;;;;5.70;4.38;;;;;;;21.54;42.50;98366.22;4949308;29;20074;-51
2022/09/18 08:01:25;;;;;;;7.00;4.47;;;;;;;20.90;43.99;98347.94;4949758;29;20533;-48
2022/09/18 08:03:54;;;;;;;8.15;5.30;;;;;;;20.66;44.87;98345.88;4966439;28;20043;-53
2022/09/18 08:06:20;;;;;;;8.90;5.60;;;;;;;20.60;45.25;98338.53;4950526;29;20447;-49
2022/09/18 08:09:04;;;;;;;7.05;4.85;;;;;;;21.03;44.82;98322.81;4963505;28;20047;-53
2022/09/18 08:11:52;;;;;;;12.32;5.13;;;;;;;21.74;44.15;98321.88;4948668;28;20051;-48
2022/09/18 08:14:44;;;;;;;6.43;5.07;;;;;;;22.95;41.88;98322.38;4950368;28;20062;-54
2022/09/18 08:17:30;;;;;;;12.23;5.70;;;;;;;22.79;42.01;98312.59;4949150;28;20047;-48
2022/09/18 08:20:28;;;;;;;8.88;5.80;;;;;;;22.55;42.01;98306.38;4938903;29;20201;-51
2022/09/18 08:23:08;;;;;;;9.48;5.50;;;;;;;21.93;42.83;98280.13;4964039;28;20083;-48
2022/09/18 08:25:37;;;;;;;10.15;5.07;;;;;;;21.97;43.23;98307.16;4948822;28;20066;-48
2022/09/18 08:28:05;;;;;;;10.43;5.43;;;;;;;22.17;43.49;98305.09;4945321;28;20130;-48
2022/09/18 08:30:46;;;;;;;9.15;5.85;;;;;;;22.34;43.01;98293.59;4970475;28;20039;-49
2022/09/18 08:33:12;;;;;;;7.50;5.63;;;;;;;22.32;43.20;98300.84;4930682;29;20105;-46
2022/09/18 08:35:39;;;;;;;7.90;5.05;;;;;;;22.51;43.05;98289.97;4955811;28;20138;-51
2022/09/18 08:38:18;;;;;;;9.45;5.53;;;;;;;22.24;43.46;98293.69;4951869;28;20530;-50
2022/09/18 08:41:40;;;;;;;9.68;5.45;;;;;;;22.32;43.25;98283.13;4950602;28;20047;-52
2022/09/18 08:44:22;;;;;;;11.88;6.30;;;;;;;22.03;43.49;98263.34;4947734;28;20191;-52
2022/09/18 08:46:57;;;;;;;6.10;5.50;;;;;;;22.00;43.78;98272.44;4916017;29;20047;-48
2022/09/18 08:49:36;;;;;;;8.77;4.93;;;;;;;21.95;43.52;98267.63;4959469;28;20043;-49
2022/09/18 08:52:16;;;;;;;9.77;5.18;;;;;;;21.87;43.77;98264.91;4927633;29;20043;-45
2022/09/18 08:55:05;;;;;;;7.85;4.68;;;;;;;21.87;43.65;98275.50;4912621;29;20070;-48
2022/09/18 08:57:41;;;;;;;11.65;4.38;;;;;;;21.59;43.82;98267.88;4953878;28;20049;-54
2022/09/18 09:00:23;;;;;;;10.65;4.45;;;;;;;21.20;44.15;98268.28;4929392;29;20494;-55
2022/09/18 09:03:21;;;;;;;8.10;4.50;;;;;;;21.20;44.63;98264.84;4926433;29;20050;-50
2022/09/18 09:05:54;;;;;;;10.23;5.00;;;;;;;21.43;44.50;98256.22;4944051;29;20047;-50
2022/09/18 09:08:49;;;;;;;11.13;5.82;;;;;;;21.64;44.41;98247.09;4959313;28;20043;-51
2022/09/18 09:11:28;;;;;;;10.45;4.90;;;;;;;21.81;44.37;98252.31;4926002;29;20082;-50
2022/09/18 09:14:09;;;;;;;8.27;4.73;;;;;;;21.76;43.86;98241.38;4939584;28;20047;-51
2022/09/18 09:16:38;;;;;;;10.05;4.75;;;;;;;21.52;44.37;98239.41;4941876;28;20054;-52
2022/09/18 09:19:19;;;;;;;9.30;4.97;;;;;;;21.34;44.38;98243.94;4944028;28;20122;-47
2022/09/18 09:22:06;;;;;;;11.68;5.25;;;;;;;21.36;44.63;98244.59;4944862;29;20054;-49
2022/09/18 09:24:43;;;;;;;8.50;5.43;;;;;;;21.53;44.29;98249.00;4926456;29;20054;-48
2022/09/18 09:27:45;;;;;;;9.45;5.53;;;;;;;21.67;44.36;98255.53;4939290;29;20597;-52
2022/09/18 09:30:24;;;;;;;;;;;;;;;21.73;44.14;98235.56;4946010;28;20047;-50
2022/09/18 09:33:37;;;;;;;10.30;5.72;;;;;;;21.81;44.09;98239.09;4941024;28;19929;-49
2022/09/18 09:36:19;;;;;;;8.10;5.40;;;;;;;21.88;44.17;98240.09;4957426;28;20574;-52
2022/09/18 09:39:14;;;;;;;11.70;6.63;;;;;;;21.73;44.65;98236.38;4928890;29;20430;-52
2022/09/18 09:41:44;;;;;;;9.40;5.97;;;;;;;21.61;44.99;98239.47;4954420;28;20767;-48
2022/09/18 09:44:58;;;;;;;11.45;6.47;;;;;;;21.44;45.26;98225.31;4962429;28;20062;-52
2022/09/18 09:47:34;;;;;;;14.02;7.10;;;;;;;21.34;45.94;98222.78;4883146;29;21997;-52
2022/09/18 09:50:31;;;;;;;12.57;7.00;;;;;;;21.23;46.44;98224.88;4888283;29;20264;-49
2022/09/18 09:53:02;;;;;;;8.37;6.63;;;;;;;21.03;47.02;98227.69;4891050;29;20129;-47
2022/09/18 09:55:43;;;;;;;10.10;6.18;;;;;;;20.60;47.59;98222.34;4891223;29;20052;-52
2022/09/18 09:58:08;;;;;;;10.88;6.35;;;;;;;20.46;47.87;98220.25;4892993;29;20168;-47
2022/09/18 10:01:01;;;;;;;11.63;6.75;;;;;;;20.26;48.12;98214.22;4878568;29;20127;-46
2022/09/18 10:03:58;;;;;;;11.32;6.50;;;;;;;19.92;48.83;98219.31;4863655;29;20048;-47
2022/09/18 10:06:50;;;;;;;13.45;6.28;;;;;;;19.56;49.75;98226.28;4895980;29;20591;-54
2022/09/18 10:09:28;;;;;;;17.00;6.50;;;;;;;19.53;49.83;98226.53;4860568;29;20053;-50
2022/09/18 10:12:18;;;;;;;11.05;6.03;;;;;;;19.32;50.27;98216.19;4876543;29;20131;-53
2022/09/18 10:14:49;;;;;;;7.63;5.00;;;;;;;19.07;50.64;98202.78;4890543;29;20048;-48
2022/09/18 10:17:16;;;;;;;9.98;6.10;;;;;;;19.05;50.94;98213.50;4899333;29;20100;-49
2022/09/18 10:19:42;;;;;;;10.68;6.10;;;;;;;18.85;51.49;98207.41;4953658;28;20086;-52
2022/09/18 10:22:12;;;;;;;11.10;6.13;;;;;;;18.78;51.82;98201.06;4971770;28;20145;-50
2022/09/18 10:24:59;;;;;;;8.70;5.68;;;;;;;18.87;51.87;98202.00;4938726;28;20039;-48
2022/09/18 10:27:26;;;;;;;9.27;5.57;;;;;;;18.93;52.03;98190.91;4954059;28;20173;-48
2022/09/18 10:29:52;;;;;;;15.60;6.13;;;;;;;18.85;52.37;98185.50;4970107;28;20837;-52
2022/09/18 10:32:37;;;;;;;9.15;6.45;;;;;;;18.73;53.06;98181.38;4936955;29;20042;-52
2022/09/18 10:35:41;;;;;;;12.73;5.85;;;;;;;18.59;53.72;98177.34;4951015;28;20051;-45
2022/09/18 10:38:31;;;;;;;9.25;5.90;;;;;;;18.41;54.25;98187.72;4955164;28;20034;-47
2022/09/18 10:41:17;;;;;;;10.10;6.28;;;;;;;18.22;54.89;98174.53;4967824;28;20632;-50
2022/09/18 10:43:54;;;;;;;11.02;6.00;;;;;;;18.15;55.06;98176.09;4970039;28;20157;-52
2022/09/18 10:46:30;;;;;;;8.73;6.38;;;;;;;18.01;55.41;98156.25;4938782;28;20097;-49
2022/09/18 10:49:00;;;;;;;9.65;6.00;;;;;;;18.07;55.64;98175.91;4944966;28;20046;-47
2022/09/18 10:51:28;;;;;;;;;;;;;;;17.96;55.84;98171.59;4944069;28;20073;-50
2022/09/18 10:54:03;;;;;;;7.60;5.97;;;;;;;17.84;56.34;98175.34;4939199;28;20016;-52
2022/09/18 10:56:45;;;;;;;9.40;6.50;;;;;;;17.74;56.77;98167.41;4941155;28;20044;-51
2022/09/18 10:59:31;;;;;;;7.38;5.82;;;;;;;17.59;57.27;98137.22;4955306;28;20125;-51
2022/09/18 11:01:59;;;;;;;11.60;6.20;;;;;;;17.70;57.42;98162.56;4955135;28;20137;-48
2022/09/18 11:04:26;;;;;;;7.45;5.95;;;;;;;17.66;57.87;98158.53;4938845;28;20046;-50
2022/09/18 11:06:52;;;;;;;7.60;4.97;;;;;;;17.63;58.05;98154.41;4954789;28;20086;-51
2022/09/18 11:09:45;;;;;;;8.32;5.60;;;;;;;17.57;58.24;98147.00;4970965;28;20133;-51
2022/09/18 11:12:24;;;;;;;10.13;5.53;;;;;;;17.54;58.51;98138.53;4955126;28;20518;-48
2022/09/18 11:15:01;;;;;;;12.02;5.30;;;;;;;17.48;58.70;98144.34;4922918;28;20051;-46
2022/09/18 11:17:31;;;;;;;10.32;6.15;;;;;;;17.43;59.09;98138.66;4970839;28;20045;-49
2022/09/18 11:20:00;;;;;;;10.60;5.50;;;;;;;17.37;59.23;98129.53;4962059;28;20130;-50
2022/09/18 11:22:41;;;;;;;13.93;5.90;;;;;;;17.38;59.41;98126.75;4954686;28;20038;-50
2022/09/18 11:25:18;;;;;;;8.15;5.93;;;;;;;17.34;59.80;98125.34;4970829;28;20070;-52
2022/09/18 11:27:52;;;;;;;9.32;6.07;;;;;;;17.27;60.30;98121.59;4954839;28;20423;-49
2022/09/18 11:30:27;;;;;;;12.23;7.38;;;;;;;17.17;61.31;98122.50;4938817;28;20070;-50
2022/09/18 11:33:12;;;;;;;13.52;6.93;;;;;;;17.11;61.70;98109.94;4970617;28;20046;-52
2022/09/18 11:35:43;;;;;;;12.20;7.32;;;;;;;16.98;63.01;98119.81;4938248;28;20046;-49
2022/09/18 11:38:11;;;;;;;12.05;7.05;;;;;;;16.89;63.67;98108.31;4970381;28;20126;-50
2022/09/18 11:40:43;;;;;;;12.70;7.05;;;;;;;16.82;64.64;98101.91;4938602;28;20138;-49
2022/09/18 11:43:23;;;;;;;18.27;8.32;;;;;;;16.82;65.04;98091.41;4954069;28;20059;-50
2022/09/18 11:46:04;;;;;;;16.10;7.82;;;;;;;16.86;65.92;98085.75;4938601;28;20042;-49
2022/09/18 11:49:00;;;;;;;11.23;7.80;;;;;;;16.93;66.36;98076.41;4961901;28;20569;-48
2022/09/18 11:51:37;;;;;;;12.70;7.43;;;;;;;16.96;66.38;98064.78;4961441;28;20026;-49
2022/09/18 11:54:06;;;;;;;10.18;7.97;;;;;;;16.98;66.45;98068.13;4939724;29;20039;-49
2022/09/18 11:56:40;;;;;;;12.82;8.00;;;;;;;16.94;66.98;98058.88;4937723;28;20689;-46
2022/09/18 11:59:26;;;;;;;17.60;8.05;;;;;;;16.83;67.36;98057.16;4969156;28;20047;-48
2022/09/18 12:01:59;;;;;;;11.85;7.75;;;;;;;16.74;67.97;98057.13;4953512;28;20125;-49